Teresa Mcallister — WDC6818 — position and weather

sailwx.info

Track history (hours):
 
Tides and Currents Weather Stations Pressure Air Temp Water Temp Dewpoint Dewpoint Depression Visibility Wind Speed Wind Dir Waves Ship Positions

Teresa Mcallister

Owner: McAllister Towing of Philadelphia, INC, Philadelphia, PA. More information available from US FCC via Universal Licensing System and Coast Guard Vessel Documentation Center.

Last reported at 2017-Sep-21 15:30 UTC. Time now 2017-Sep-21 15:43 UTC.
Position N 39°54' W 075°12'.

Length 28 m.

Type: Tug. MMSI: 367061730.

Date/timePositionNaut miles runAvg speedWind from/ knotsBaromVisibWave heightAir tempDewpointWater temp
2017-Sep-21 15:30N 39°54' W 075°12'0 0.0
2017-Sep-21 15:00N 39°54' W 075°12'0 0.0
2017-Sep-21 14:30N 39°54' W 075°12'0 0.0
2017-Sep-21 14:01N 39°54' W 075°12'0 0.0
2017-Sep-21 13:30N 39°54' W 075°12'0 0.0
2017-Sep-21 13:00N 39°54' W 075°12'0 0.0
2017-Sep-21 12:30N 39°54' W 075°12'0 0.0
2017-Sep-21 12:00N 39°54' W 075°12'0 0.0
2017-Sep-21 11:31N 39°54' W 075°12'0 0.0
2017-Sep-21 11:01N 39°54' W 075°12'0 0.0
2017-Sep-21 10:31N 39°54' W 075°12'0 0.0
2017-Sep-21 10:01N 39°54' W 075°12'0 0.0
2017-Sep-21 09:30N 39°54' W 075°12'0 0.0
2017-Sep-21 09:01N 39°54' W 075°12'0 0.0
2017-Sep-21 08:31N 39°54' W 075°12'0 0.0
2017-Sep-21 08:01N 39°54' W 075°12'2 4.7
2017-Sep-21 07:30N 39°53' W 075°09'3 6.2
2017-Sep-21 07:00N 39°56' W 075°08'0 0.5
2017-Sep-21 06:30N 39°56' W 075°08'2 3.2
2017-Sep-21 06:00N 39°54' W 075°08'0 0.2
2017-Sep-21 05:30N 39°54' W 075°08'2 4.4
2017-Sep-21 05:00N 39°53' W 075°10'2 3.8
2017-Sep-21 04:30N 39°54' W 075°08'3 0.3
2017-Sep-20 17:55N 39°54' W 075°12'2 4.8
2017-Sep-20 17:30N 39°53' W 075°10'0 0.0
2017-Sep-20 17:00N 39°53' W 075°10'1 1.7
2017-Sep-20 16:30N 39°53' W 075°11'1 1.8
2017-Sep-20 16:00N 39°53' W 075°12'0 1.0
2017-Sep-20 15:31N 39°54' W 075°12'0 0.2
2017-Sep-20 15:01N 39°54' W 075°12'1 0.8
2017-Sep-20 14:00N 39°53' W 075°12'4 7.4
2017-Sep-20 13:30N 39°55' W 075°08'0 0.1
2017-Sep-20 13:01N 39°55' W 075°08'1 1.5
2017-Sep-20 12:31N 39°56' W 075°08'0 0.1
2017-Sep-20 12:00N 39°56' W 075°08'1 1.7
2017-Sep-20 11:31N 39°55' W 075°07'1 2.5
2017-Sep-20 11:00N 39°56' W 075°08'0 0.6
2017-Sep-20 10:30N 39°56' W 075°08'2 3.9
2017-Sep-20 10:00N 39°54' W 075°08'0 0.9
2017-Sep-20 09:30N 39°54' W 075°08'2 3.7
2017-Sep-20 09:00N 39°56' W 075°08'0 0.0
2017-Sep-20 08:30N 39°56' W 075°08'3 5.8
2017-Sep-20 08:00N 39°53' W 075°08'3 5.4
2017-Sep-20 07:30N 39°54' W 075°12'0 0.0
2017-Sep-20 07:00N 39°54' W 075°12'0 0.0
2017-Sep-19 03:07N 39°54' W 075°12'0 1.2
2017-Sep-19 03:01N 39°54' W 075°12'0 0.4
2017-Sep-19 02:31N 39°54' W 075°12'0 0.1
2017-Sep-19 02:01N 39°54' W 075°12'1 2.1
2017-Sep-19 01:30N 39°53' W 075°12'1 3.0
2017-Sep-19 01:00N 39°52' W 075°14'3 5.1
2017-Sep-19 00:30N 39°54' W 075°12'  
2017-Sep-14 02:24N 39°54' W 075°12'3 7.1
2017-Sep-14 02:00N 39°54' W 075°08'5 9.2
2017-Sep-14 01:27N 39°59' W 075°06'0 0.2
2017-Sep-14 01:00N 39°59' W 075°06'1 1.1
2017-Sep-14 00:31N 39°58' W 075°07'1 2.8
2017-Sep-14 00:01N 39°57' W 075°08'2 3.9
2017-Sep-13 23:31N 39°59' W 075°06'1 2.8
2017-Sep-13 23:00N 39°58' W 075°07'510.0
2017-Sep-13 22:30N 39°53' W 075°09'1 1.2
2017-Sep-13 22:01N 39°53' W 075°09'1 1.0
2017-Sep-13 21:31N 39°53' W 075°09'2 3.5
2017-Sep-13 21:01N 39°55' W 075°08'2 4.9
2017-Sep-13 20:30N 39°53' W 075°10'2 3.2
2017-Sep-13 20:00N 39°54' W 075°12'0 0.0
2017-Sep-13 19:31N 39°54' W 075°12'0 0.0
2017-Sep-13 19:00N 39°54' W 075°12'0 0.0
2017-Sep-13 18:31N 39°54' W 075°12'0 0.0
2017-Sep-13 18:01N 39°54' W 075°12'0 0.0
2017-Sep-13 17:31N 39°54' W 075°12'0 0.0
2017-Sep-13 17:01N 39°54' W 075°12'0 0.0
2017-Sep-13 16:31N 39°54' W 075°12'0 0.0
2017-Sep-13 16:01N 39°54' W 075°12'0 0.0
2017-Sep-13 15:30N 39°54' W 075°12'0 0.0
2017-Sep-13 15:00N 39°54' W 075°12'0 0.0
2017-Sep-13 14:30N 39°54' W 075°12'0 0.0
2017-Sep-13 14:01N 39°54' W 075°12'0 0.0
2017-Sep-13 13:30N 39°54' W 075°12'0 0.0
2017-Sep-13 13:00N 39°54' W 075°12'0 0.0
2017-Sep-13 12:30N 39°54' W 075°12'0 0.0
2017-Sep-13 12:00N 39°54' W 075°12'0 0.0
2017-Sep-13 11:30N 39°54' W 075°12'0 0.0
2017-Sep-13 11:00N 39°54' W 075°12'0 0.0
2017-Sep-13 10:30N 39°54' W 075°12'0 0.0
2017-Sep-13 10:00N 39°54' W 075°12'0 0.0
2017-Sep-13 09:30N 39°54' W 075°12'0 0.0
2017-Sep-13 09:00N 39°54' W 075°12'0 0.0
2017-Sep-13 08:30N 39°54' W 075°12'0 0.0
2017-Sep-13 08:00N 39°54' W 075°12'0 0.0
2017-Sep-13 07:30N 39°54' W 075°12'0 0.0
2017-Sep-13 07:00N 39°54' W 075°12'0 0.0
2017-Sep-13 06:31N 39°54' W 075°12'0 0.0
2017-Sep-13 06:00N 39°54' W 075°12'0 0.0
2017-Sep-13 05:30N 39°54' W 075°12'0 0.0
2017-Sep-13 05:00N 39°54' W 075°12'0 0.0
2017-Sep-13 04:30N 39°54' W 075°12'0 0.0
2017-Sep-13 04:00N 39°54' W 075°12'0 0.0
2017-Sep-13 03:30N 39°54' W 075°12'0 0.0
2017-Sep-13 03:00N 39°54' W 075°12'0 0.0
2017-Sep-13 02:30N 39°54' W 075°12'0 0.0
2017-Sep-13 02:00N 39°54' W 075°12'0 0.0
2017-Sep-13 01:30N 39°54' W 075°12'0 0.0
2017-Sep-13 01:00N 39°54' W 075°12'0 0.0
2017-Sep-13 00:30N 39°54' W 075°12'0 0.0
2017-Sep-13 00:00N 39°54' W 075°12'0 0.0
2017-Sep-12 23:31N 39°54' W 075°12'0 0.0
2017-Sep-12 23:00N 39°54' W 075°12'0 0.0
2017-Sep-12 22:30N 39°54' W 075°12'0 0.0
2017-Sep-12 22:00N 39°54' W 075°12'0 0.0
2017-Sep-12 21:31N 39°54' W 075°12'0 0.0
2017-Sep-12 21:00N 39°54' W 075°12'0 0.0
2017-Sep-12 20:30N 39°54' W 075°12'0 0.0
2017-Sep-12 20:00N 39°54' W 075°12'0 0.0
2017-Sep-12 19:30N 39°54' W 075°12'0 0.0
2017-Sep-12 19:00N 39°54' W 075°12'0 0.0
2017-Sep-12 18:30N 39°54' W 075°12'0 0.0
2017-Sep-12 18:00N 39°54' W 075°12'0 0.0
2017-Sep-12 17:30N 39°54' W 075°12'0 0.0
2017-Sep-12 17:00N 39°54' W 075°12'0 0.0
2017-Sep-12 16:30N 39°54' W 075°12'0 0.0
2017-Sep-12 16:00N 39°54' W 075°12'0 0.0
2017-Sep-12 15:30N 39°54' W 075°12'0 0.0
2017-Sep-12 15:00N 39°54' W 075°12'0 0.0
2017-Sep-12 14:30N 39°54' W 075°12'0 0.0
2017-Sep-12 14:00N 39°54' W 075°12'0 0.0
2017-Sep-12 13:31N 39°54' W 075°12'0 0.0
2017-Sep-12 13:00N 39°54' W 075°12'0 0.0
2017-Sep-12 12:31N 39°54' W 075°12'0 0.0
2017-Sep-12 09:16N 39°54' W 075°12'0 0.0
2017-Sep-12 09:00N 39°54' W 075°12'3 5.2
2017-Sep-12 08:31N 39°53' W 075°09'1 2.8
2017-Sep-12 08:00N 39°54' W 075°08'2 3.6
2017-Sep-12 07:31N 39°53' W 075°09'1 2.3
2017-Sep-12 07:01N 39°54' W 075°08'1 1.3
2017-Sep-12 06:30N 39°54' W 075°08'3 6.9
2017-Sep-12 06:00N 39°53' W 075°12'1 1.6
2017-Sep-12 05:31N 39°54' W 075°12'0 0.0
2017-Sep-12 05:00N 39°54' W 075°12'0 0.0
2017-Sep-12 04:31N 39°54' W 075°12'0 0.0
2017-Sep-12 04:01N 39°54' W 075°12'0 0.0
2017-Sep-12 03:30N 39°54' W 075°12'0 0.0
2017-Sep-12 03:01N 39°54' W 075°12'0 0.0
2017-Sep-12 02:30N 39°54' W 075°12'0 0.0
2017-Sep-12 02:00N 39°54' W 075°12'0 0.0
2017-Sep-12 01:31N 39°54' W 075°12'0 0.0
2017-Sep-12 01:01N 39°54' W 075°12'0 0.0
2017-Sep-12 00:30N 39°54' W 075°12'0 0.0
2017-Sep-12 00:00N 39°54' W 075°12'0 0.0
2017-Sep-11 23:31N 39°54' W 075°12'0 0.0
2017-Sep-11 23:01N 39°54' W 075°12'0 0.0
2017-Sep-11 22:31N 39°54' W 075°12'0 0.0
2017-Sep-11 22:00N 39°54' W 075°12'0 0.0
2017-Sep-11 21:31N 39°54' W 075°12'0 0.0
2017-Sep-11 21:00N 39°54' W 075°12'0 0.0
2017-Sep-11 20:30N 39°54' W 075°12'0 0.0
2017-Sep-11 20:01N 39°54' W 075°12'0 0.0
2017-Sep-11 19:30N 39°54' W 075°12'0 0.0
2017-Sep-11 19:00N 39°54' W 075°12'0 0.0
2017-Sep-11 18:30N 39°54' W 075°12'0 0.0
2017-Sep-11 18:00N 39°54' W 075°12'0 0.0
2017-Sep-11 17:30N 39°54' W 075°12'0 0.0
2017-Sep-11 17:00N 39°54' W 075°12'0 0.0
2017-Sep-11 16:30N 39°54' W 075°12'0 0.0
2017-Sep-11 16:00N 39°54' W 075°12'0 0.0
2017-Sep-11 15:30N 39°54' W 075°12'  
Track history (hours):
 
Tides and Currents Weather Stations Pressure Air Temp Water Temp Dewpoint Dewpoint Depression Visibility Wind Speed Wind Dir Waves Ship Positions

Teresa Mcallister

Owner: McAllister Towing of Philadelphia, INC, Philadelphia, PA. More information available from US FCC via Universal Licensing System and Coast Guard Vessel Documentation Center.

Last reported at 2017-Sep-21 15:30 UTC. Time now 2017-Sep-21 15:43 UTC.
Position N 39°54' W 075°12'.

Length 28 m.

Type: Tug. MMSI: 367061730.

Date/timePositionNaut miles runAvg speedWind from/ knotsBaromVisibWave heightAir tempDewpointWater temp
2017-Sep-21 15:30N 39°54' W 075°12'0 0.0
2017-Sep-21 15:00N 39°54' W 075°12'0 0.0
2017-Sep-21 14:30N 39°54' W 075°12'0 0.0
2017-Sep-21 14:01N 39°54' W 075°12'0 0.0
2017-Sep-21 13:30N 39°54' W 075°12'0 0.0
2017-Sep-21 13:00N 39°54' W 075°12'0 0.0
2017-Sep-21 12:30N 39°54' W 075°12'0 0.0
2017-Sep-21 12:00N 39°54' W 075°12'0 0.0
2017-Sep-21 11:31N 39°54' W 075°12'0 0.0
2017-Sep-21 11:01N 39°54' W 075°12'0 0.0
2017-Sep-21 10:31N 39°54' W 075°12'0 0.0
2017-Sep-21 10:01N 39°54' W 075°12'0 0.0
2017-Sep-21 09:30N 39°54' W 075°12'0 0.0
2017-Sep-21 09:01N 39°54' W 075°12'0 0.0
2017-Sep-21 08:31N 39°54' W 075°12'0 0.0
2017-Sep-21 08:01N 39°54' W 075°12'2 4.7
2017-Sep-21 07:30N 39°53' W 075°09'3 6.2
2017-Sep-21 07:00N 39°56' W 075°08'0 0.5
2017-Sep-21 06:30N 39°56' W 075°08'2 3.2
2017-Sep-21 06:00N 39°54' W 075°08'0 0.2
2017-Sep-21 05:30N 39°54' W 075°08'2 4.4
2017-Sep-21 05:00N 39°53' W 075°10'2 3.8
2017-Sep-21 04:30N 39°54' W 075°08'3 0.3
2017-Sep-20 17:55N 39°54' W 075°12'2 4.8
2017-Sep-20 17:30N 39°53' W 075°10'0 0.0
2017-Sep-20 17:00N 39°53' W 075°10'1 1.7
2017-Sep-20 16:30N 39°53' W 075°11'1 1.8
2017-Sep-20 16:00N 39°53' W 075°12'0 1.0
2017-Sep-20 15:31N 39°54' W 075°12'0 0.2
2017-Sep-20 15:01N 39°54' W 075°12'1 0.8
2017-Sep-20 14:00N 39°53' W 075°12'4 7.4
2017-Sep-20 13:30N 39°55' W 075°08'0 0.1
2017-Sep-20 13:01N 39°55' W 075°08'1 1.5
2017-Sep-20 12:31N 39°56' W 075°08'0 0.1
2017-Sep-20 12:00N 39°56' W 075°08'1 1.7
2017-Sep-20 11:31N 39°55' W 075°07'1 2.5
2017-Sep-20 11:00N 39°56' W 075°08'0 0.6
2017-Sep-20 10:30N 39°56' W 075°08'2 3.9
2017-Sep-20 10:00N 39°54' W 075°08'0 0.9
2017-Sep-20 09:30N 39°54' W 075°08'2 3.7
2017-Sep-20 09:00N 39°56' W 075°08'0 0.0
2017-Sep-20 08:30N 39°56' W 075°08'3 5.8
2017-Sep-20 08:00N 39°53' W 075°08'3 5.4
2017-Sep-20 07:30N 39°54' W 075°12'0 0.0
2017-Sep-20 07:00N 39°54' W 075°12'0 0.0
2017-Sep-19 03:07N 39°54' W 075°12'0 1.2
2017-Sep-19 03:01N 39°54' W 075°12'0 0.4
2017-Sep-19 02:31N 39°54' W 075°12'0 0.1
2017-Sep-19 02:01N 39°54' W 075°12'1 2.1
2017-Sep-19 01:30N 39°53' W 075°12'1 3.0
2017-Sep-19 01:00N 39°52' W 075°14'3 5.1
2017-Sep-19 00:30N 39°54' W 075°12'  
2017-Sep-14 02:24N 39°54' W 075°12'3 7.1
2017-Sep-14 02:00N 39°54' W 075°08'5 9.2
2017-Sep-14 01:27N 39°59' W 075°06'0 0.2
2017-Sep-14 01:00N 39°59' W 075°06'1 1.1
2017-Sep-14 00:31N 39°58' W 075°07'1 2.8
2017-Sep-14 00:01N 39°57' W 075°08'2 3.9
2017-Sep-13 23:31N 39°59' W 075°06'1 2.8
2017-Sep-13 23:00N 39°58' W 075°07'510.0
2017-Sep-13 22:30N 39°53' W 075°09'1 1.2
2017-Sep-13 22:01N 39°53' W 075°09'1 1.0
2017-Sep-13 21:31N 39°53' W 075°09'2 3.5
2017-Sep-13 21:01N 39°55' W 075°08'2 4.9
2017-Sep-13 20:30N 39°53' W 075°10'2 3.2
2017-Sep-13 20:00N 39°54' W 075°12'0 0.0
2017-Sep-13 19:31N 39°54' W 075°12'0 0.0
2017-Sep-13 19:00N 39°54' W 075°12'0 0.0
2017-Sep-13 18:31N 39°54' W 075°12'0 0.0
2017-Sep-13 18:01N 39°54' W 075°12'0 0.0
2017-Sep-13 17:31N 39°54' W 075°12'0 0.0
2017-Sep-13 17:01N 39°54' W 075°12'0 0.0
2017-Sep-13 16:31N 39°54' W 075°12'0 0.0
2017-Sep-13 16:01N 39°54' W 075°12'0 0.0
2017-Sep-13 15:30N 39°54' W 075°12'0 0.0
2017-Sep-13 15:00N 39°54' W 075°12'0 0.0
2017-Sep-13 14:30N 39°54' W 075°12'0 0.0
2017-Sep-13 14:01N 39°54' W 075°12'0 0.0
2017-Sep-13 13:30N 39°54' W 075°12'0 0.0
2017-Sep-13 13:00N 39°54' W 075°12'0 0.0
2017-Sep-13 12:30N 39°54' W 075°12'0 0.0
2017-Sep-13 12:00N 39°54' W 075°12'0 0.0
2017-Sep-13 11:30N 39°54' W 075°12'0 0.0
2017-Sep-13 11:00N 39°54' W 075°12'0 0.0
2017-Sep-13 10:30N 39°54' W 075°12'0 0.0
2017-Sep-13 10:00N 39°54' W 075°12'0 0.0
2017-Sep-13 09:30N 39°54' W 075°12'0 0.0
2017-Sep-13 09:00N 39°54' W 075°12'0 0.0
2017-Sep-13 08:30N 39°54' W 075°12'0 0.0
2017-Sep-13 08:00N 39°54' W 075°12'0 0.0
2017-Sep-13 07:30N 39°54' W 075°12'0 0.0
2017-Sep-13 07:00N 39°54' W 075°12'0 0.0
2017-Sep-13 06:31N 39°54' W 075°12'0 0.0
2017-Sep-13 06:00N 39°54' W 075°12'0 0.0
2017-Sep-13 05:30N 39°54' W 075°12'0 0.0
2017-Sep-13 05:00N 39°54' W 075°12'0 0.0
2017-Sep-13 04:30N 39°54' W 075°12'0 0.0
2017-Sep-13 04:00N 39°54' W 075°12'0 0.0
2017-Sep-13 03:30N 39°54' W 075°12'0 0.0
2017-Sep-13 03:00N 39°54' W 075°12'0 0.0
2017-Sep-13 02:30N 39°54' W 075°12'0 0.0
2017-Sep-13 02:00N 39°54' W 075°12'0 0.0
2017-Sep-13 01:30N 39°54' W 075°12'0 0.0
2017-Sep-13 01:00N 39°54' W 075°12'0 0.0
2017-Sep-13 00:30N 39°54' W 075°12'0 0.0
2017-Sep-13 00:00N 39°54' W 075°12'0 0.0
2017-Sep-12 23:31N 39°54' W 075°12'0 0.0
2017-Sep-12 23:00N 39°54' W 075°12'0 0.0
2017-Sep-12 22:30N 39°54' W 075°12'0 0.0
2017-Sep-12 22:00N 39°54' W 075°12'0 0.0
2017-Sep-12 21:31N 39°54' W 075°12'0 0.0
2017-Sep-12 21:00N 39°54' W 075°12'0 0.0
2017-Sep-12 20:30N 39°54' W 075°12'0 0.0
2017-Sep-12 20:00N 39°54' W 075°12'0 0.0
2017-Sep-12 19:30N 39°54' W 075°12'0 0.0
2017-Sep-12 19:00N 39°54' W 075°12'0 0.0
2017-Sep-12 18:30N 39°54' W 075°12'0 0.0
2017-Sep-12 18:00N 39°54' W 075°12'0 0.0
2017-Sep-12 17:30N 39°54' W 075°12'0 0.0
2017-Sep-12 17:00N 39°54' W 075°12'0 0.0
2017-Sep-12 16:30N 39°54' W 075°12'0 0.0
2017-Sep-12 16:00N 39°54' W 075°12'0 0.0
2017-Sep-12 15:30N 39°54' W 075°12'0 0.0
2017-Sep-12 15:00N 39°54' W 075°12'0 0.0
2017-Sep-12 14:30N 39°54' W 075°12'0 0.0
2017-Sep-12 14:00N 39°54' W 075°12'0 0.0
2017-Sep-12 13:31N 39°54' W 075°12'0 0.0
2017-Sep-12 13:00N 39°54' W 075°12'0 0.0
2017-Sep-12 12:31N 39°54' W 075°12'0 0.0
2017-Sep-12 09:16N 39°54' W 075°12'0 0.0
2017-Sep-12 09:00N 39°54' W 075°12'3 5.2
2017-Sep-12 08:31N 39°53' W 075°09'1 2.8
2017-Sep-12 08:00N 39°54' W 075°08'2 3.6
2017-Sep-12 07:31N 39°53' W 075°09'1 2.3
2017-Sep-12 07:01N 39°54' W 075°08'1 1.3
2017-Sep-12 06:30N 39°54' W 075°08'3 6.9
2017-Sep-12 06:00N 39°53' W 075°12'1 1.6
2017-Sep-12 05:31N 39°54' W 075°12'0 0.0
2017-Sep-12 05:00N 39°54' W 075°12'0 0.0
2017-Sep-12 04:31N 39°54' W 075°12'0 0.0
2017-Sep-12 04:01N 39°54' W 075°12'0 0.0
2017-Sep-12 03:30N 39°54' W 075°12'0 0.0
2017-Sep-12 03:01N 39°54' W 075°12'0 0.0
2017-Sep-12 02:30N 39°54' W 075°12'0 0.0
2017-Sep-12 02:00N 39°54' W 075°12'0 0.0
2017-Sep-12 01:31N 39°54' W 075°12'0 0.0
2017-Sep-12 01:01N 39°54' W 075°12'0 0.0
2017-Sep-12 00:30N 39°54' W 075°12'0 0.0
2017-Sep-12 00:00N 39°54' W 075°12'0 0.0
2017-Sep-11 23:31N 39°54' W 075°12'0 0.0
2017-Sep-11 23:01N 39°54' W 075°12'0 0.0
2017-Sep-11 22:31N 39°54' W 075°12'0 0.0
2017-Sep-11 22:00N 39°54' W 075°12'0 0.0
2017-Sep-11 21:31N 39°54' W 075°12'0 0.0
2017-Sep-11 21:00N 39°54' W 075°12'0 0.0
2017-Sep-11 20:30N 39°54' W 075°12'0 0.0
2017-Sep-11 20:01N 39°54' W 075°12'0 0.0
2017-Sep-11 19:30N 39°54' W 075°12'0 0.0
2017-Sep-11 19:00N 39°54' W 075°12'0 0.0
2017-Sep-11 18:30N 39°54' W 075°12'0 0.0
2017-Sep-11 18:00N 39°54' W 075°12'0 0.0
2017-Sep-11 17:30N 39°54' W 075°12'0 0.0
2017-Sep-11 17:00N 39°54' W 075°12'0 0.0
2017-Sep-11 16:30N 39°54' W 075°12'0 0.0
2017-Sep-11 16:00N 39°54' W 075°12'0 0.0
2017-Sep-11 15:30N 39°54' W 075°12'  

Dump ship's entire track history